createdAt,value
2019-06-08T00:02:08.545Z,98178.28
2019-06-08T00:04:39.616Z,98179.05
2019-06-08T00:07:09.816Z,98180.45
2019-06-08T00:09:41.066Z,98177.44
2019-06-08T00:12:12.952Z,98171.39
2019-06-08T00:14:44.290Z,98173.22
2019-06-08T00:17:30.308Z,98175.81
2019-06-08T00:19:48.323Z,98173.70
2019-06-08T00:22:19.791Z,98175.05
2019-06-08T00:24:51.024Z,98185.41
2019-06-08T00:27:23.052Z,98185.88
2019-06-08T00:29:54.940Z,98197.20
2019-06-08T00:32:26.104Z,98197.58
2019-06-08T00:34:57.478Z,98197.58
2019-06-08T00:37:28.463Z,98199.59
2019-06-08T00:39:58.652Z,98197.78
2019-06-08T00:42:29.975Z,98194.70
2019-06-08T00:45:01.264Z,98191.66
2019-06-08T00:47:47.049Z,98193.84
2019-06-08T00:50:08.542Z,98194.37
2019-06-08T00:52:39.788Z,98189.05
2019-06-08T00:55:10.968Z,98191.34
2019-06-08T00:57:42.185Z,98187.25
2019-06-08T01:00:13.381Z,98195.48
2019-06-08T01:02:44.579Z,98200.25
2019-06-08T01:05:15.641Z,98203.53
2019-06-08T01:07:46.990Z,98206.25
2019-06-08T01:10:19.217Z,98208.98
2019-06-08T01:12:50.534Z,98219.98
2019-06-08T01:15:27.735Z,98208.42
2019-06-08T01:18:02.683Z,98207.15
2019-06-08T01:20:27.519Z,98206.25
2019-06-08T01:22:58.718Z,98216.31
2019-06-08T01:25:30.153Z,98218.39
2019-06-08T01:28:01.061Z,98223.17
2019-06-08T01:30:32.545Z,98219.98
2019-06-08T01:33:03.654Z,98220.31
2019-06-08T01:35:34.929Z,98225.99
2019-06-08T01:38:06.048Z,98230.80
2019-06-08T01:40:37.486Z,98221.16
2019-06-08T01:43:08.395Z,98219.85
2019-06-08T01:45:39.657Z,98223.38
2019-06-08T01:48:20.140Z,98217.47
2019-06-08T01:50:42.723Z,98224.56
2019-06-08T01:53:13.951Z,98230.43
2019-06-08T01:55:44.982Z,98229.20
2019-06-08T01:58:16.160Z,98237.06
2019-06-08T02:00:47.362Z,98243.08
2019-06-08T02:03:18.680Z,98246.47
2019-06-08T02:05:49.760Z,98243.38
2019-06-08T02:08:20.901Z,98232.81
2019-06-08T02:10:51.897Z,98232.81
2019-06-08T02:13:22.970Z,98245.84
2019-06-08T02:15:54.019Z,98248.93
2019-06-08T02:18:36.327Z,98246.66
2019-06-08T02:20:58.063Z,98258.25
2019-06-08T02:23:31.108Z,98255.55
2019-06-08T02:26:02.252Z,98264.16
2019-06-08T02:28:33.555Z,98273.26
2019-06-08T02:31:05.064Z,98270.09
2019-06-08T02:33:37.346Z,98263.53
2019-06-08T02:36:08.771Z,98250.50
2019-06-08T02:38:39.841Z,98265.77
2019-06-08T02:41:11.067Z,98276.45
2019-06-08T02:43:42.145Z,98278.11
2019-06-08T02:46:13.373Z,98278.50
2019-06-08T02:49:02.441Z,98280.28
2019-06-08T02:51:18.087Z,98283.67
2019-06-08T02:53:49.924Z,98292.46
2019-06-08T02:56:23.771Z,98285.98
2019-06-08T02:58:57.983Z,98284.78
2019-06-08T03:01:31.302Z,98283.09
2019-06-08T03:04:02.897Z,98282.05
2019-06-08T03:06:38.898Z,98282.05
2019-06-08T03:09:09.749Z,98286.09
2019-06-08T03:11:42.000Z,98286.63
2019-06-08T03:14:13.540Z,98287.02
2019-06-08T03:16:44.576Z,98301.83
2019-06-08T03:19:21.899Z,98306.88
2019-06-08T03:21:48.636Z,98314.13
2019-06-08T03:24:19.801Z,98319.11
2019-06-08T03:26:50.829Z,98311.01
2019-06-08T03:29:22.023Z,98309.23
2019-06-08T03:31:56.395Z,98317.84
2019-06-08T03:34:25.922Z,98337.89
2019-06-08T03:36:57.695Z,98343.99
2019-06-08T03:39:28.105Z,98351.91
2019-06-08T03:41:59.370Z,98353.59
2019-06-08T03:44:30.416Z,98362.70
2019-06-08T03:47:01.591Z,98357.07
2019-06-08T03:49:44.949Z,98358.77
2019-06-08T03:52:05.519Z,98361.85
2019-06-08T03:54:38.902Z,98362.31
2019-06-08T03:57:09.258Z,98358.88
2019-06-08T03:59:41.064Z,98355.05
2019-06-08T04:02:13.098Z,98355.24
2019-06-08T04:04:46.073Z,98348.81
2019-06-08T04:07:16.842Z,98353.71
2019-06-08T04:09:47.874Z,98361.34
2019-06-08T04:12:18.165Z,98352.28
2019-06-08T04:14:50.494Z,98364.86
2019-06-08T04:17:21.552Z,98373.58
2019-06-08T04:20:09.425Z,98371.88
2019-06-08T04:22:25.560Z,98378.44
2019-06-08T04:24:56.901Z,98394.56
2019-06-08T04:27:27.879Z,98401.13
2019-06-08T04:29:59.059Z,98410.31
2019-06-08T04:32:30.212Z,98414.40
2019-06-08T04:35:01.447Z,98407.77
2019-06-08T04:37:32.743Z,98408.34
2019-06-08T04:40:06.295Z,98420.86
2019-06-08T04:42:39.232Z,98421.74
2019-06-08T04:45:11.066Z,98435.11
2019-06-08T04:47:43.632Z,98439.04
2019-06-08T04:50:22.471Z,98445.98
2019-06-08T04:52:48.041Z,98447.44
2019-06-08T04:55:19.944Z,98459.69
2019-06-08T04:57:51.100Z,98459.61
2019-06-08T05:00:22.246Z,98470.41
2019-06-08T05:02:53.967Z,98474.80
2019-06-08T05:05:25.020Z,98471.19
2019-06-08T05:07:56.224Z,98477.95
2019-06-08T05:10:27.190Z,98462.84
2019-06-08T05:12:58.545Z,98460.92
2019-06-08T05:15:29.416Z,98463.09
2019-06-08T05:18:00.710Z,98469.25
2019-06-08T05:20:39.016Z,98470.16
2019-06-08T05:23:03.752Z,98472.46
2019-06-08T05:25:35.062Z,98481.95
2019-06-08T05:28:06.180Z,98471.32
2019-06-08T05:30:37.425Z,98472.41
2019-06-08T05:33:08.517Z,98472.80
2019-06-08T05:35:39.776Z,98484.07
2019-06-08T05:38:10.747Z,98502.89
2019-06-08T05:40:42.118Z,98505.66
2019-06-08T05:43:13.120Z,98511.86
2019-06-08T05:45:45.698Z,98518.80
2019-06-08T05:48:16.759Z,98517.74
2019-06-08T05:51:00.232Z,98521.14
2019-06-08T05:53:20.598Z,98526.00
2019-06-08T05:55:52.325Z,98537.16
2019-06-08T05:58:23.202Z,98539.03
2019-06-08T06:00:53.300Z,98539.25
2019-06-08T06:03:24.376Z,98535.00
2019-06-08T06:05:55.373Z,98533.19
2019-06-08T06:08:26.620Z,98520.00
2019-06-08T06:11:00.788Z,98521.63
2019-06-08T06:13:31.938Z,98542.89
2019-06-08T06:16:03.071Z,98547.81
2019-06-08T06:18:34.462Z,98542.96
2019-06-08T06:21:11.088Z,98557.77
2019-06-08T06:23:38.542Z,98556.25
2019-06-08T06:26:09.542Z,98545.43
2019-06-08T06:28:43.806Z,98559.61
2019-06-08T06:31:14.907Z,98569.88
2019-06-08T06:33:45.975Z,98577.81
2019-06-08T06:36:17.407Z,98581.61
2019-06-08T06:38:50.054Z,98589.84
2019-06-08T06:41:21.379Z,98574.09
2019-06-08T06:43:52.381Z,98572.31
2019-06-08T06:46:23.864Z,98576.18
2019-06-08T06:48:54.845Z,98575.72
2019-06-08T06:51:26.969Z,98585.36
2019-06-08T06:53:57.954Z,98583.52
2019-06-08T06:56:29.568Z,98579.18
2019-06-08T06:59:00.508Z,98587.96
2019-06-08T07:01:32.630Z,98578.23
2019-06-08T07:04:03.774Z,98585.70
2019-06-08T07:06:34.032Z,98590.31
2019-06-08T07:09:06.795Z,98589.75
2019-06-08T07:11:37.834Z,98596.44
2019-06-08T07:14:09.249Z,98598.60
2019-06-08T07:16:40.245Z,98606.84
2019-06-08T07:19:14.619Z,98614.18
2019-06-08T07:21:46.152Z,98607.92
2019-06-08T07:24:17.301Z,98612.91
2019-06-08T07:26:48.335Z,98615.63
2019-06-08T07:29:19.403Z,98615.43
2019-06-08T07:31:51.679Z,98619.49
2019-06-08T07:34:23.512Z,98628.53
2019-06-08T07:36:55.549Z,98620.38
2019-06-08T07:39:26.934Z,98628.81
2019-06-08T07:41:57.974Z,98617.45
2019-06-08T07:44:28.204Z,98628.34
2019-06-08T07:47:00.148Z,98623.86
2019-06-08T07:49:31.171Z,98621.31
2019-06-08T07:52:10.561Z,98628.03
2019-06-08T07:54:40.729Z,98637.42
2019-06-08T07:57:14.701Z,98639.12
2019-06-08T07:59:45.734Z,98638.14
2019-06-08T08:02:17.048Z,98651.75
2019-06-08T08:04:48.444Z,98652.36
2019-06-08T08:07:19.660Z,98651.81
2019-06-08T08:09:50.723Z,98643.05
2019-06-08T08:12:21.970Z,98651.19
2019-06-08T08:14:53.342Z,98658.44
2019-06-08T08:17:23.398Z,98642.36
2019-06-08T08:19:55.176Z,98650.30
2019-06-08T08:22:29.488Z,98668.61
2019-06-08T08:25:03.257Z,98649.14
2019-06-08T08:27:32.315Z,98651.99
2019-06-08T08:30:05.050Z,98662.19
2019-06-08T08:32:38.071Z,98655.53
2019-06-08T08:35:09.236Z,98655.38
2019-06-08T08:37:40.259Z,98658.89
2019-06-08T08:40:12.271Z,98665.02
2019-06-08T08:42:43.445Z,98662.64
2019-06-08T08:45:15.378Z,98660.48
2019-06-08T08:47:48.364Z,98684.74
2019-06-08T08:50:19.569Z,98659.84
2019-06-08T08:52:51.300Z,98664.78
2019-06-08T08:55:22.442Z,98667.89
2019-06-08T08:57:54.753Z,98665.59
2019-06-08T09:00:27.990Z,98666.58
2019-06-08T09:03:13.142Z,98662.28
2019-06-08T09:05:33.184Z,98669.16
2019-06-08T09:08:08.636Z,98665.48
2019-06-08T09:10:40.291Z,98670.86
2019-06-08T09:13:12.074Z,98675.69
2019-06-08T09:15:43.405Z,98681.03
2019-06-08T09:18:14.739Z,98675.11
2019-06-08T09:20:47.892Z,98679.94
2019-06-08T09:23:21.816Z,98667.11
2019-06-08T09:25:53.565Z,98685.62
2019-06-08T09:28:24.689Z,98679.23
2019-06-08T09:30:56.709Z,98679.11
2019-06-08T09:33:28.801Z,98686.28
2019-06-08T09:36:02.806Z,98689.13
2019-06-08T09:38:32.843Z,98686.95
2019-06-08T09:41:05.440Z,98687.05
2019-06-08T09:43:38.840Z,98690.09
2019-06-08T09:46:09.685Z,98688.91
2019-06-08T09:48:40.670Z,98693.55
2019-06-08T09:51:12.254Z,98689.56
2019-06-08T09:53:43.217Z,98687.23
2019-06-08T09:56:14.594Z,98690.20
2019-06-08T09:58:45.524Z,98694.02
2019-06-08T10:01:18.496Z,98693.31
2019-06-08T10:03:49.671Z,98686.28
2019-06-08T10:06:21.820Z,98686.42
2019-06-08T10:08:54.178Z,98696.03
2019-06-08T10:11:24.439Z,98697.37
2019-06-08T10:13:59.012Z,98697.37
2019-06-08T10:16:30.665Z,98692.31
2019-06-08T10:19:03.926Z,98726.64
2019-06-08T10:21:34.019Z,98689.44
2019-06-08T10:24:08.749Z,98706.46
2019-06-08T10:26:38.020Z,98692.60
2019-06-08T10:29:10.540Z,98698.15
2019-06-08T10:31:43.642Z,98698.15
2019-06-08T10:34:14.942Z,98699.69
2019-06-08T10:36:46.011Z,98698.87
2019-06-08T10:39:20.363Z,98691.37
2019-06-08T10:41:53.005Z,98688.61
2019-06-08T10:44:23.133Z,98685.21
2019-06-08T10:46:54.302Z,98670.16
2019-06-08T10:49:27.837Z,98690.05
2019-06-08T10:52:01.617Z,98696.03
2019-06-08T10:54:33.696Z,98686.03
2019-06-08T10:57:07.157Z,98694.17
2019-06-08T10:59:40.235Z,98680.92
2019-06-08T11:02:14.628Z,98690.05
2019-06-08T11:04:48.302Z,98669.69
2019-06-08T11:07:18.732Z,98673.36
2019-06-08T11:09:59.798Z,98694.17
2019-06-08T11:12:31.422Z,98695.68
2019-06-08T11:15:09.283Z,98684.50
2019-06-08T11:17:39.120Z,98683.02
2019-06-08T11:20:11.895Z,98666.43
2019-06-08T11:22:43.162Z,98685.88
2019-06-08T11:25:16.352Z,98692.81
2019-06-08T11:27:47.543Z,98689.46
2019-06-08T11:30:24.135Z,98687.35
2019-06-08T11:32:52.536Z,98678.25
2019-06-08T11:35:23.750Z,98675.84
2019-06-08T11:37:54.794Z,98668.44
2019-06-08T11:40:27.848Z,98658.91
2019-06-08T11:43:00.234Z,98668.13
2019-06-08T11:45:31.847Z,98663.23
2019-06-08T11:48:04.527Z,98656.47
2019-06-08T11:50:41.964Z,98671.37
2019-06-08T11:53:14.264Z,98666.23
2019-06-08T11:55:44.566Z,98671.68
2019-06-08T11:58:21.896Z,98667.07
2019-06-08T12:01:04.597Z,98669.71
2019-06-08T12:03:34.916Z,98659.70
2019-06-08T12:06:14.338Z,98664.05
2019-06-08T12:08:47.282Z,98672.22
2019-06-08T12:11:19.793Z,98657.42
2019-06-08T12:13:50.117Z,98664.03
2019-06-08T12:16:24.368Z,98677.87
2019-06-08T12:18:58.411Z,98648.69
2019-06-08T12:21:28.291Z,98660.84
2019-06-08T12:23:59.619Z,98659.87
2019-06-08T12:26:30.805Z,98661.92
2019-06-08T12:29:02.202Z,98649.00
2019-06-08T12:31:33.295Z,98651.89
2019-06-08T12:34:05.191Z,98649.59
2019-06-08T12:36:37.531Z,98650.44
2019-06-08T12:39:10.095Z,98643.58
2019-06-08T12:41:41.210Z,98644.71
2019-06-08T12:44:15.556Z,98631.48
2019-06-08T12:46:48.501Z,98634.17
2019-06-08T12:49:20.382Z,98638.53
2019-06-08T12:51:51.985Z,98639.14
2019-06-08T12:54:23.033Z,98645.58
2019-06-08T12:56:54.322Z,98649.70
2019-06-08T12:59:25.448Z,98644.80
2019-06-08T13:01:58.664Z,98642.86
2019-06-08T13:04:29.499Z,98638.60
2019-06-08T13:07:01.185Z,98646.33
2019-06-08T13:09:32.320Z,98649.16
2019-06-08T13:12:03.907Z,98656.72
2019-06-08T13:14:34.929Z,98652.55
2019-06-08T13:17:08.656Z,98644.62
2019-06-08T13:19:40.928Z,98644.62
2019-06-08T13:22:11.146Z,98651.00
2019-06-08T13:24:43.181Z,98650.28
2019-06-08T13:27:15.431Z,98640.22
2019-06-08T13:29:48.895Z,98645.97
2019-06-08T13:32:21.877Z,98640.04
2019-06-08T13:34:53.149Z,98649.18
2019-06-08T13:37:24.215Z,98638.03
2019-06-08T13:39:55.518Z,98638.03
2019-06-08T13:42:27.946Z,98654.38
2019-06-08T13:44:59.444Z,98654.90
2019-06-08T13:47:30.561Z,98641.69
2019-06-08T13:50:02.081Z,98649.36
2019-06-08T13:52:33.085Z,98637.17
2019-06-08T13:55:09.004Z,98632.84
2019-06-08T13:57:40.431Z,98626.15
2019-06-08T14:00:11.943Z,98627.61
2019-06-08T14:02:44.535Z,98634.77
2019-06-08T14:05:24.780Z,98634.77
2019-06-08T14:07:51.685Z,98644.14
2019-06-08T14:10:34.502Z,98644.14
2019-06-08T14:13:06.306Z,98642.77
2019-06-08T14:15:38.060Z,98638.91
2019-06-08T14:18:09.442Z,98640.28
2019-06-08T14:20:40.470Z,98643.45
2019-06-08T14:23:11.796Z,98641.61
2019-06-08T14:25:50.631Z,98648.05
2019-06-08T14:28:19.261Z,98641.75
2019-06-08T14:30:48.869Z,98623.06
2019-06-08T14:33:25.178Z,98631.32
2019-06-08T14:35:55.539Z,98631.32
2019-06-08T14:38:34.885Z,98643.37
2019-06-08T14:40:59.083Z,98636.91
2019-06-08T14:43:31.396Z,98642.40
2019-06-08T14:46:02.642Z,98640.67
2019-06-08T14:48:34.068Z,98638.80
2019-06-08T14:51:05.343Z,98634.02
2019-06-08T14:53:38.619Z,98624.69
2019-06-08T14:56:09.593Z,98643.78
2019-06-08T14:58:40.660Z,98629.78
2019-06-08T15:01:12.051Z,98629.78
2019-06-08T15:03:43.110Z,98635.13
2019-06-08T15:06:14.550Z,98624.93
2019-06-08T15:08:50.054Z,98624.93
2019-06-08T15:11:19.644Z,98622.63
2019-06-08T15:13:50.695Z,98622.63
2019-06-08T15:16:21.592Z,98621.83
2019-06-08T15:18:52.959Z,98627.59
2019-06-08T15:21:25.368Z,98635.12
2019-06-08T15:23:58.061Z,98625.14
2019-06-08T15:26:39.247Z,98614.03
2019-06-08T15:29:02.091Z,98617.21
2019-06-08T15:31:33.123Z,98611.89
2019-06-08T15:34:04.364Z,98611.89
2019-06-08T15:36:35.250Z,98613.21
2019-06-08T15:39:07.956Z,98595.84
2019-06-08T15:41:38.887Z,98595.84
2019-06-08T15:44:10.187Z,98597.50
2019-06-08T15:46:41.404Z,98589.34
2019-06-08T15:49:11.706Z,98587.03
2019-06-08T15:51:43.123Z,98590.34
2019-06-08T15:54:14.274Z,98594.34
2019-06-08T15:56:49.514Z,98601.79
2019-06-08T15:59:18.433Z,98601.79
2019-06-08T16:01:49.529Z,98599.92
2019-06-08T16:04:20.483Z,98599.61
2019-06-08T16:06:51.750Z,98598.27
2019-06-08T16:09:23.974Z,98597.73
2019-06-08T16:11:55.436Z,98597.73
2019-06-08T16:14:26.745Z,98593.52
2019-06-08T16:16:58.194Z,98593.73
2019-06-08T16:19:29.628Z,98593.91
2019-06-08T16:21:59.829Z,98595.11
2019-06-08T16:24:31.893Z,98584.16
2019-06-08T16:27:02.920Z,98589.28
2019-06-08T16:29:35.165Z,98584.50
2019-06-08T16:32:06.371Z,98585.21
2019-06-08T16:34:37.609Z,98577.70
2019-06-08T16:37:10.393Z,98581.05
2019-06-08T16:39:41.742Z,98585.97
2019-06-08T16:42:12.738Z,98580.90
2019-06-08T16:44:44.060Z,98582.40
2019-06-08T16:47:15.151Z,98586.06
2019-06-08T16:49:46.300Z,98585.20
2019-06-08T16:52:20.291Z,98591.09
2019-06-08T16:54:50.381Z,98587.04
2019-06-08T16:57:21.679Z,98584.30
2019-06-08T16:59:52.674Z,98584.89
2019-06-08T17:07:23.376Z,98588.70
2019-06-08T17:09:54.339Z,98583.69
2019-06-08T17:12:25.596Z,98587.05
2019-06-08T17:14:56.599Z,98586.69
2019-06-08T17:17:27.735Z,98586.32
2019-06-08T17:19:58.785Z,98587.11
2019-06-08T17:22:30.284Z,98589.13
2019-06-08T17:25:01.317Z,98588.37
2019-06-08T17:27:34.609Z,98589.13
2019-06-08T17:30:08.530Z,98591.66
2019-06-08T17:32:40.515Z,98593.75
2019-06-08T17:35:12.010Z,98594.33
2019-06-08T17:37:43.134Z,98595.66
2019-06-08T17:40:14.746Z,98597.08
2019-06-08T17:42:45.821Z,98594.14
2019-06-08T17:45:18.369Z,98597.78
2019-06-08T17:47:49.485Z,98598.53
2019-06-08T17:50:22.413Z,98597.45
2019-06-08T17:52:53.567Z,98588.80
2019-06-08T17:55:25.191Z,98592.03
2019-06-08T17:57:56.236Z,98600.11
2019-06-08T18:00:27.644Z,98593.16
2019-06-08T18:03:00.603Z,98596.23
2019-06-08T18:05:30.894Z,98599.99
2019-06-08T18:08:02.230Z,98596.09
2019-06-08T18:10:34.036Z,98600.42
2019-06-08T18:13:07.285Z,98602.89
2019-06-08T18:15:39.112Z,98601.30
2019-06-08T18:18:11.440Z,98606.25
2019-06-08T18:20:43.851Z,98608.36
2019-06-08T18:23:18.656Z,98608.52
2019-06-08T18:25:50.209Z,98605.72
2019-06-08T18:28:21.522Z,98605.73
2019-06-08T18:30:53.034Z,98609.48
2019-06-08T18:33:24.360Z,98610.22
2019-06-08T18:35:57.669Z,98606.86
2019-06-08T18:40:58.824Z,98601.76
2019-06-08T18:43:28.939Z,98606.30
2019-06-08T18:46:00.284Z,98606.52
2019-06-08T18:48:31.399Z,98597.67
2019-06-08T18:51:04.894Z,98606.19
2019-06-08T18:53:49.111Z,98605.75
2019-06-08T18:56:08.980Z,98614.53
2019-06-08T18:58:40.021Z,98618.78
2019-06-08T19:01:11.543Z,98622.91
2019-06-08T19:03:45.664Z,98623.30
2019-06-08T19:06:18.157Z,98623.34
2019-06-08T19:08:57.785Z,98624.56
2019-06-08T19:11:24.300Z,98622.56
2019-06-08T19:13:57.929Z,98632.08
2019-06-08T19:16:29.693Z,98629.70
2019-06-08T19:19:00.813Z,98634.25
2019-06-08T19:21:30.980Z,98639.78
2019-06-08T19:24:02.200Z,98642.10
2019-06-08T19:26:33.212Z,98648.47
2019-06-08T19:29:04.628Z,98657.00
2019-06-08T19:31:38.597Z,98653.97
2019-06-08T19:34:08.530Z,98659.16
2019-06-08T19:36:41.329Z,98667.33
2019-06-08T19:39:12.411Z,98666.02
2019-06-08T19:41:44.116Z,98677.16
2019-06-08T19:44:15.586Z,98679.61
2019-06-08T19:46:51.145Z,98682.83
2019-06-08T19:49:20.152Z,98686.83
2019-06-08T19:51:53.897Z,98684.59
2019-06-08T19:54:22.997Z,98686.02
2019-06-08T19:56:54.652Z,98692.50
2019-06-08T19:59:27.480Z,98691.56
2019-06-08T20:01:59.921Z,98691.72
2019-06-08T20:04:31.121Z,98690.02
2019-06-08T20:07:02.423Z,98689.37
2019-06-08T20:09:33.433Z,98692.17
2019-06-08T20:12:04.785Z,98697.62
2019-06-08T20:14:37.500Z,98694.12
2019-06-08T20:17:08.890Z,98700.32
2019-06-08T20:19:42.761Z,98702.39
2019-06-08T20:22:14.305Z,98705.86
2019-06-08T20:24:47.030Z,98706.69
2019-06-08T20:27:18.275Z,98707.41
2019-06-08T20:29:51.243Z,98696.84
2019-06-08T20:32:21.545Z,98707.42
2019-06-08T20:34:53.780Z,98705.59
2019-06-08T20:37:27.842Z,98703.55
2019-06-08T20:40:09.659Z,98704.84
2019-06-08T20:42:32.004Z,98708.05
2019-06-08T20:45:04.060Z,98708.23
2019-06-08T20:47:36.715Z,98714.81
2019-06-08T20:50:08.889Z,98720.89
2019-06-08T20:52:39.744Z,98718.58
2019-06-08T20:55:11.075Z,98724.38
2019-06-08T20:57:43.109Z,98722.14
2019-06-08T21:00:14.556Z,98718.00
2019-06-08T21:02:46.463Z,98718.03
2019-06-08T21:05:19.983Z,98721.47
2019-06-08T21:07:55.681Z,98720.30
2019-06-08T21:10:28.147Z,98717.62
2019-06-08T21:12:59.026Z,98717.97
2019-06-08T21:15:29.966Z,98712.02
2019-06-08T21:18:04.121Z,98713.34
2019-06-08T21:20:37.609Z,98715.00
2019-06-08T21:23:09.309Z,98723.13
2019-06-08T21:25:40.197Z,98717.22
2019-06-08T21:28:11.567Z,98720.25
2019-06-08T21:30:42.577Z,98725.36
2019-06-08T21:33:13.737Z,98725.30
2019-06-08T21:35:44.772Z,98727.01
2019-06-08T21:38:23.239Z,98727.47
2019-06-08T21:40:50.962Z,98739.14
2019-06-08T21:43:20.698Z,98744.06
2019-06-08T21:45:53.064Z,98740.11
2019-06-08T21:48:24.675Z,98736.95
2019-06-08T21:51:01.043Z,98739.55
2019-06-08T21:53:31.893Z,98745.94
2019-06-08T21:56:03.435Z,98748.47
2019-06-08T21:58:34.552Z,98750.17
2019-06-08T22:01:07.367Z,98753.36
2019-06-08T22:03:40.248Z,98765.31
2019-06-08T22:06:12.824Z,98760.49
2019-06-08T22:08:43.911Z,98764.68
2019-06-08T22:11:17.594Z,98763.70
2019-06-08T22:13:47.992Z,98758.59
2019-06-08T22:16:19.362Z,98759.73
2019-06-08T22:18:51.550Z,98758.02
2019-06-08T22:21:22.214Z,98759.49
2019-06-08T22:23:55.867Z,98759.38
2019-06-08T22:26:28.037Z,98764.70
2019-06-08T22:29:00.996Z,98764.01
2019-06-08T22:31:32.124Z,98760.20
2019-06-08T22:34:04.047Z,98761.39
2019-06-08T22:36:37.265Z,98758.19
2019-06-08T22:39:08.368Z,98758.77
2019-06-08T22:41:39.500Z,98761.27
2019-06-08T22:44:10.820Z,98758.31
2019-06-08T22:46:41.749Z,98758.00
2019-06-08T22:49:15.216Z,98765.69
2019-06-08T22:51:47.709Z,98765.34
2019-06-08T22:54:18.914Z,98762.14
2019-06-08T22:56:50.036Z,98763.83
2019-06-08T22:59:20.070Z,98778.72
2019-06-08T23:01:51.262Z,98775.03
2019-06-08T23:04:22.335Z,98782.34
2019-06-08T23:07:29.810Z,98787.91
2019-06-08T23:10:08.941Z,98786.96
2019-06-08T23:12:39.892Z,98781.83
2019-06-08T23:15:11.323Z,98781.22
2019-06-08T23:17:42.522Z,98783.14
2019-06-08T23:20:14.050Z,98785.59
2019-06-08T23:22:47.381Z,98778.72
2019-06-08T23:25:18.428Z,98788.22
2019-06-08T23:27:49.727Z,98786.00
2019-06-08T23:30:20.714Z,98782.08
2019-06-08T23:32:52.048Z,98780.27
2019-06-08T23:35:23.013Z,98782.28
2019-06-08T23:37:54.210Z,98786.15
2019-06-08T23:40:27.208Z,98777.31
2019-06-08T23:42:58.497Z,98782.37
2019-06-08T23:45:30.013Z,98781.47
2019-06-08T23:48:01.554Z,98783.45
2019-06-08T23:50:34.402Z,98783.53
2019-06-08T23:53:09.119Z,98792.80
2019-06-08T23:55:38.601Z,98784.44
2019-06-08T23:58:11.267Z,98785.97
